sensor_id;sensor_type;location;lat;lon;timestamp;pressure;altitude;pressure_sealevel;temperature;humidity
29825;BME280;16713;52.916;12.834;2023-04-04T00:00:54;102536.72;;;-1.55;74.47
29825;BME280;16713;52.916;12.834;2023-04-04T00:03:20;102526.56;;;-1.53;74.26
29825;BME280;16713;52.916;12.834;2023-04-04T00:05:47;102529.72;;;-1.56;74.63
29825;BME280;16713;52.916;12.834;2023-04-04T00:08:14;102529.34;;;-1.59;74.77
29825;BME280;16713;52.916;12.834;2023-04-04T00:10:40;102519.88;;;-1.50;74.58
29825;BME280;16713;52.916;12.834;2023-04-04T00:13:08;102509.13;;;-1.50;73.92
29825;BME280;16713;52.916;12.834;2023-04-04T00:15:34;102515.94;;;-1.48;74.33
29825;BME280;16713;52.916;12.834;2023-04-04T00:18:02;102513.94;;;-1.41;74.29
29825;BME280;16713;52.916;12.834;2023-04-04T00:20:29;102509.38;;;-1.40;74.01
29825;BME280;16713;52.916;12.834;2023-04-04T00:22:57;102515.22;;;-1.43;73.85
29825;BME280;16713;52.916;12.834;2023-04-04T00:25:24;102517.44;;;-1.52;73.79
29825;BME280;16713;52.916;12.834;2023-04-04T00:27:50;102508.72;;;-1.77;74.04
29825;BME280;16713;52.916;12.834;2023-04-04T00:30:17;102509.66;;;-1.71;74.02
29825;BME280;16713;52.916;12.834;2023-04-04T00:32:43;102506.09;;;-1.54;74.42
29825;BME280;16713;52.916;12.834;2023-04-04T00:35:10;102511.47;;;-1.54;74.05
29825;BME280;16713;52.916;12.834;2023-04-04T00:37:37;102504.88;;;-1.69;74.42
29825;BME280;16713;52.916;12.834;2023-04-04T00:40:04;102500.63;;;-1.77;74.68
29825;BME280;16713;52.916;12.834;2023-04-04T00:42:32;102495.84;;;-1.75;74.88
29825;BME280;16713;52.916;12.834;2023-04-04T00:44:59;102498.59;;;-1.63;74.55
29825;BME280;16713;52.916;12.834;2023-04-04T00:47:29;102506.53;;;-1.68;74.38
29825;BME280;16713;52.916;12.834;2023-04-04T00:49:56;102497.63;;;-1.69;74.58
29825;BME280;16713;52.916;12.834;2023-04-04T00:52:23;102499.25;;;-1.68;74.68
29825;BME280;16713;52.916;12.834;2023-04-04T00:54:49;102500.94;;;-1.55;74.37
29825;BME280;16713;52.916;12.834;2023-04-04T00:57:16;102492.06;;;-1.56;74.32
29825;BME280;16713;52.916;12.834;2023-04-04T00:59:43;102491.34;;;-1.51;73.89
29825;BME280;16713;52.916;12.834;2023-04-04T01:02:09;102485.56;;;-1.66;73.78
29825;BME280;16713;52.916;12.834;2023-04-04T01:04:36;102484.59;;;-1.54;74.28
29825;BME280;16713;52.916;12.834;2023-04-04T01:07:03;102485.47;;;-1.60;73.96
29825;BME280;16713;52.916;12.834;2023-04-04T01:09:29;102488.19;;;-1.48;73.81
29825;BME280;16713;52.916;12.834;2023-04-04T01:11:56;102493.47;;;-1.42;73.69
29825;BME280;16713;52.916;12.834;2023-04-04T01:14:23;102500.75;;;-1.31;73.28
29825;BME280;16713;52.916;12.834;2023-04-04T01:16:49;102495.69;;;-1.39;73.11
29825;BME280;16713;52.916;12.834;2023-04-04T01:19:32;102495.22;;;-1.59;72.94
29825;BME280;16713;52.916;12.834;2023-04-04T01:22:00;102490.94;;;-1.66;73.17
29825;BME280;16713;52.916;12.834;2023-04-04T01:24:32;102483.75;;;-1.84;73.55
29825;BME280;16713;52.916;12.834;2023-04-04T01:26:59;102484.31;;;-1.93;73.75
29825;BME280;16713;52.916;12.834;2023-04-04T01:29:26;102480.78;;;-2.05;73.30
29825;BME280;16713;52.916;12.834;2023-04-04T01:32:32;102472.53;;;-1.92;72.68
29825;BME280;16713;52.916;12.834;2023-04-04T01:38:22;102474.06;;;-2.14;73.13
29825;BME280;16713;52.916;12.834;2023-04-04T01:41:00;102476.03;;;-2.21;74.14
29825;BME280;16713;52.916;12.834;2023-04-04T01:43:29;102469.50;;;-2.14;73.52
29825;BME280;16713;52.916;12.834;2023-04-04T01:45:57;102479.63;;;-2.27;72.74
29825;BME280;16713;52.916;12.834;2023-04-04T01:48:24;102466.50;;;-2.36;72.50
29825;BME280;16713;52.916;12.834;2023-04-04T01:50:52;102463.22;;;-2.38;73.35
29825;BME280;16713;52.916;12.834;2023-04-04T01:53:19;102470.75;;;-2.46;73.53
29825;BME280;16713;52.916;12.834;2023-04-04T01:55:45;102467.84;;;-2.45;73.69
29825;BME280;16713;52.916;12.834;2023-04-04T01:58:11;102472.56;;;-2.58;73.75
29825;BME280;16713;52.916;12.834;2023-04-04T02:00:38;102469.50;;;-2.62;73.32
29825;BME280;16713;52.916;12.834;2023-04-04T02:03:05;102466.44;;;-2.65;72.99
29825;BME280;16713;52.916;12.834;2023-04-04T02:05:31;102473.72;;;-2.54;72.78
29825;BME280;16713;52.916;12.834;2023-04-04T02:07:58;102467.03;;;-2.63;73.54
29825;BME280;16713;52.916;12.834;2023-04-04T02:10:24;102458.44;;;-2.54;74.39
29825;BME280;16713;52.916;12.834;2023-04-04T02:12:54;102457.84;;;-2.38;75.30
29825;BME280;16713;52.916;12.834;2023-04-04T02:15:20;102452.63;;;-2.51;73.63
29825;BME280;16713;52.916;12.834;2023-04-04T02:17:47;102460.00;;;-2.64;73.60
29825;BME280;16713;52.916;12.834;2023-04-04T02:20:14;102447.78;;;-2.60;73.77
29825;BME280;16713;52.916;12.834;2023-04-04T02:22:53;102450.16;;;-2.70;74.18
29825;BME280;16713;52.916;12.834;2023-04-04T02:25:21;102444.34;;;-2.67;74.69
29825;BME280;16713;52.916;12.834;2023-04-04T02:27:48;102451.22;;;-2.71;74.49
29825;BME280;16713;52.916;12.834;2023-04-04T02:30:14;102452.47;;;-2.74;74.33
29825;BME280;16713;52.916;12.834;2023-04-04T02:32:41;102448.38;;;-2.76;73.99
29825;BME280;16713;52.916;12.834;2023-04-04T02:35:08;102444.34;;;-2.85;73.99
29825;BME280;16713;52.916;12.834;2023-04-04T02:37:34;102443.53;;;-2.86;74.30
29825;BME280;16713;52.916;12.834;2023-04-04T02:40:02;102445.53;;;-2.81;73.76
29825;BME280;16713;52.916;12.834;2023-04-04T02:42:28;102440.91;;;-2.92;73.98
29825;BME280;16713;52.916;12.834;2023-04-04T02:44:55;102436.50;;;-2.87;74.26
29825;BME280;16713;52.916;12.834;2023-04-04T02:47:22;102432.41;;;-2.89;73.85
29825;BME280;16713;52.916;12.834;2023-04-04T02:49:48;102428.81;;;-3.01;73.95
29825;BME280;16713;52.916;12.834;2023-04-04T02:52:14;102429.03;;;-3.03;73.20
29825;BME280;16713;52.916;12.834;2023-04-04T02:54:41;102419.66;;;-3.12;73.70
29825;BME280;16713;52.916;12.834;2023-04-04T02:57:08;102414.72;;;-3.15;73.30
29825;BME280;16713;52.916;12.834;2023-04-04T02:59:34;102414.97;;;-3.16;73.74
29825;BME280;16713;52.916;12.834;2023-04-04T03:02:01;102411.28;;;-3.22;73.76
29825;BME280;16713;52.916;12.834;2023-04-04T03:04:27;102411.22;;;-3.15;74.56
29825;BME280;16713;52.916;12.834;2023-04-04T03:06:54;102404.53;;;-3.06;74.29
29825;BME280;16713;52.916;12.834;2023-04-04T03:09:21;102399.81;;;-3.11;74.39
29825;BME280;16713;52.916;12.834;2023-04-04T03:11:48;102401.41;;;-3.03;73.77
29825;BME280;16713;52.916;12.834;2023-04-04T03:14:15;102404.31;;;-3.05;73.77
29825;BME280;16713;52.916;12.834;2023-04-04T03:16:41;102400.72;;;-2.99;74.51
29825;BME280;16713;52.916;12.834;2023-04-04T03:19:08;102402.88;;;-3.07;74.72
29825;BME280;16713;52.916;12.834;2023-04-04T03:21:35;102404.66;;;-3.19;74.56
29825;BME280;16713;52.916;12.834;2023-04-04T03:24:02;102393.09;;;-3.20;73.34
29825;BME280;16713;52.916;12.834;2023-04-04T03:26:28;102399.19;;;-3.06;74.27
29825;BME280;16713;52.916;12.834;2023-04-04T03:28:55;102401.34;;;-2.97;73.70
29825;BME280;16713;52.916;12.834;2023-04-04T03:31:21;102398.28;;;-3.00;74.53
29825;BME280;16713;52.916;12.834;2023-04-04T03:33:48;102395.41;;;-3.23;74.36
29825;BME280;16713;52.916;12.834;2023-04-04T03:36:15;102392.34;;;-3.27;74.22
29825;BME280;16713;52.916;12.834;2023-04-04T03:38:41;102385.63;;;-3.36;74.36
29825;BME280;16713;52.916;12.834;2023-04-04T03:41:08;102385.56;;;-3.29;73.79
29825;BME280;16713;52.916;12.834;2023-04-04T03:43:35;102393.03;;;-3.31;73.78
29825;BME280;16713;52.916;12.834;2023-04-04T03:46:02;102391.59;;;-3.34;74.08
29825;BME280;16713;52.916;12.834;2023-04-04T03:48:30;102392.50;;;-3.40;74.18
29825;BME280;16713;52.916;12.834;2023-04-04T03:50:57;102391.06;;;-3.42;73.78
29825;BME280;16713;52.916;12.834;2023-04-04T03:53:24;102390.78;;;-3.34;74.51
29825;BME280;16713;52.916;12.834;2023-04-04T03:55:51;102391.53;;;-3.27;74.67
29825;BME280;16713;52.916;12.834;2023-04-04T03:58:18;102377.06;;;-3.44;74.08
29825;BME280;16713;52.916;12.834;2023-04-04T04:00:45;102378.09;;;-3.45;73.69
29825;BME280;16713;52.916;12.834;2023-04-04T04:03:11;102376.88;;;-3.49;74.30
29825;BME280;16713;52.916;12.834;2023-04-04T04:05:41;102377.94;;;-3.50;73.73
29825;BME280;16713;52.916;12.834;2023-04-04T04:08:07;102386.38;;;-3.47;73.26
29825;BME280;16713;52.916;12.834;2023-04-04T04:10:34;102381.44;;;-3.50;74.15
29825;BME280;16713;52.916;12.834;2023-04-04T04:13:00;102374.06;;;-3.54;74.67
29825;BME280;16713;52.916;12.834;2023-04-04T04:15:27;102379.16;;;-3.46;74.77
29825;BME280;16713;52.916;12.834;2023-04-04T04:17:54;102370.44;;;-3.42;75.43
29825;BME280;16713;52.916;12.834;2023-04-04T04:20:21;102372.00;;;-3.34;75.40
29825;BME280;16713;52.916;12.834;2023-04-04T04:22:48;102368.38;;;-3.22;75.32
29825;BME280;16713;52.916;12.834;2023-04-04T04:25:15;102374.97;;;-3.42;73.99
29825;BME280;16713;52.916;12.834;2023-04-04T04:27:43;102370.66;;;-3.43;74.34
29825;BME280;16713;52.916;12.834;2023-04-04T04:30:10;102369.31;;;-3.34;74.00
29825;BME280;16713;52.916;12.834;2023-04-04T04:32:38;102374.06;;;-3.54;74.06
29825;BME280;16713;52.916;12.834;2023-04-04T04:35:05;102380.94;;;-3.40;73.74
29825;BME280;16713;52.916;12.834;2023-04-04T04:37:32;102371.09;;;-3.46;74.25
29825;BME280;16713;52.916;12.834;2023-04-04T04:39:58;102367.16;;;-3.44;74.88
29825;BME280;16713;52.916;12.834;2023-04-04T04:42:26;102363.19;;;-3.41;75.35
29825;BME280;16713;52.916;12.834;2023-04-04T04:44:54;102365.00;;;-3.35;75.33
29825;BME280;16713;52.916;12.834;2023-04-04T04:47:21;102367.16;;;-3.44;74.82
29825;BME280;16713;52.916;12.834;2023-04-04T04:49:47;102363.56;;;-3.38;74.15
29825;BME280;16713;52.916;12.834;2023-04-04T04:52:14;102368.56;;;-3.41;73.70
29825;BME280;16713;52.916;12.834;2023-04-04T04:54:41;102371.09;;;-3.46;74.49
29825;BME280;16713;52.916;12.834;2023-04-04T04:57:09;102366.78;;;-3.47;75.06
29825;BME280;16713;52.916;12.834;2023-04-04T04:59:35;102381.00;;;-3.47;74.54
29825;BME280;16713;52.916;12.834;2023-04-04T05:02:02;102374.09;;;-3.36;74.23
29825;BME280;16713;52.916;12.834;2023-04-04T05:04:29;102377.81;;;-3.37;74.17
29825;BME280;16713;52.916;12.834;2023-04-04T05:06:55;102376.75;;;-3.36;75.03
29825;BME280;16713;52.916;12.834;2023-04-04T05:09:22;102365.16;;;-3.30;74.48
29825;BME280;16713;52.916;12.834;2023-04-04T05:11:48;102368.59;;;-3.23;74.77
29825;BME280;16713;52.916;12.834;2023-04-04T05:14:15;102368.06;;;-3.14;74.90
29825;BME280;16713;52.916;12.834;2023-04-04T05:16:41;102368.59;;;-3.05;74.89
29825;BME280;16713;52.916;12.834;2023-04-04T05:19:08;102374.19;;;-3.07;74.69
29825;BME280;16713;52.916;12.834;2023-04-04T05:21:34;102379.34;;;-2.87;75.57
29825;BME280;16713;52.916;12.834;2023-04-04T05:24:01;102380.91;;;-2.80;76.10
29825;BME280;16713;52.916;12.834;2023-04-04T05:26:28;102379.31;;;-2.69;75.93
29825;BME280;16713;52.916;12.834;2023-04-04T05:28:54;102390.66;;;-2.67;76.64
29825;BME280;16713;52.916;12.834;2023-04-04T05:31:21;102396.47;;;-2.52;76.77
29825;BME280;16713;52.916;12.834;2023-04-04T05:33:48;102396.75;;;-2.31;76.43
29825;BME280;16713;52.916;12.834;2023-04-04T05:36:14;102404.03;;;-2.31;76.61
29825;BME280;16713;52.916;12.834;2023-04-04T05:38:41;102400.56;;;-2.20;76.52
29825;BME280;16713;52.916;12.834;2023-04-04T05:41:08;102402.75;;;-1.99;76.14
29825;BME280;16713;52.916;12.834;2023-04-04T05:43:35;102411.16;;;-1.84;75.79
29825;BME280;16713;52.916;12.834;2023-04-04T05:46:01;102414.13;;;-1.74;76.08
29825;BME280;16713;52.916;12.834;2023-04-04T05:48:28;102413.19;;;-1.68;75.03
29825;BME280;16713;52.916;12.834;2023-04-04T05:50:54;102408.19;;;-1.53;75.62
29825;BME280;16713;52.916;12.834;2023-04-04T05:53:21;102407.97;;;-1.40;75.54
29825;BME280;16713;52.916;12.834;2023-04-04T05:55:51;102410.56;;;-1.22;75.10
29825;BME280;16713;52.916;12.834;2023-04-04T05:58:18;102407.63;;;-1.32;75.39
29825;BME280;16713;52.916;12.834;2023-04-04T06:00:44;102405.25;;;-1.17;74.86
29825;BME280;16713;52.916;12.834;2023-04-04T06:03:11;102412.78;;;-1.07;74.91
29825;BME280;16713;52.916;12.834;2023-04-04T06:05:38;102424.34;;;-0.95;74.95
29825;BME280;16713;52.916;12.834;2023-04-04T06:08:04;102421.88;;;-0.85;75.04
29825;BME280;16713;52.916;12.834;2023-04-04T06:10:31;102413.44;;;-0.77;74.18
29825;BME280;16713;52.916;12.834;2023-04-04T06:12:58;102412.81;;;-0.67;74.52
29825;BME280;16713;52.916;12.834;2023-04-04T06:15:24;102411.38;;;-0.58;74.41
29825;BME280;16713;52.916;12.834;2023-04-04T06:17:50;102414.63;;;-0.45;74.42
29825;BME280;16713;52.916;12.834;2023-04-04T06:20:17;102417.94;;;-0.26;73.58
29825;BME280;16713;52.916;12.834;2023-04-04T06:22:46;102419.88;;;-0.10;73.42
29825;BME280;16713;52.916;12.834;2023-04-04T06:25:12;102422.28;;;0.03;73.11
29825;BME280;16713;52.916;12.834;2023-04-04T06:27:39;102424.44;;;0.17;72.61
29825;BME280;16713;52.916;12.834;2023-04-04T06:30:06;102425.59;;;0.21;72.51
29825;BME280;16713;52.916;12.834;2023-04-04T06:32:36;102424.63;;;0.27;72.46
29825;BME280;16713;52.916;12.834;2023-04-04T06:35:04;102432.69;;;0.44;71.50
29825;BME280;16713;52.916;12.834;2023-04-04T06:37:31;102426.50;;;0.43;71.50
29825;BME280;16713;52.916;12.834;2023-04-04T06:39:57;102430.75;;;0.56;70.26
29825;BME280;16713;52.916;12.834;2023-04-04T06:42:24;102423.22;;;0.58;70.48
29825;BME280;16713;52.916;12.834;2023-04-04T06:44:51;102425.31;;;0.89;69.20
29825;BME280;16713;52.916;12.834;2023-04-04T06:47:17;102424.19;;;0.85;70.05
29825;BME280;16713;52.916;12.834;2023-04-04T06:49:43;102420.16;;;0.88;68.94
29825;BME280;16713;52.916;12.834;2023-04-04T06:52:10;102420.34;;;0.81;67.65
29825;BME280;16713;52.916;12.834;2023-04-04T06:54:37;102423.41;;;1.06;67.45
29825;BME280;16713;52.916;12.834;2023-04-04T06:57:03;102424.47;;;1.05;66.99
29825;BME280;16713;52.916;12.834;2023-04-04T06:59:30;102425.13;;;1.12;66.61
29825;BME280;16713;52.916;12.834;2023-04-04T07:01:56;102429.25;;;1.20;65.70
29825;BME280;16713;52.916;12.834;2023-04-04T07:04:23;102430.53;;;1.55;66.36
29825;BME280;16713;52.916;12.834;2023-04-04T07:06:51;102429.00;;;1.64;66.19
29825;BME280;16713;52.916;12.834;2023-04-04T07:09:17;102424.56;;;1.75;64.91
29825;BME280;16713;52.916;12.834;2023-04-04T07:11:54;102417.09;;;1.87;63.93
29825;BME280;16713;52.916;12.834;2023-04-04T07:14:21;102420.69;;;1.92;64.68
29825;BME280;16713;52.916;12.834;2023-04-04T07:16:51;102420.06;;;2.07;62.93
29825;BME280;16713;52.916;12.834;2023-04-04T07:19:18;102423.13;;;2.21;62.44
29825;BME280;16713;52.916;12.834;2023-04-04T07:21:44;102421.56;;;2.25;62.11
29825;BME280;16713;52.916;12.834;2023-04-04T07:24:11;102418.97;;;2.35;63.50
29825;BME280;16713;52.916;12.834;2023-04-04T07:26:37;102424.44;;;2.45;63.41
29825;BME280;16713;52.916;12.834;2023-04-04T07:29:04;102419.47;;;2.63;63.09
29825;BME280;16713;52.916;12.834;2023-04-04T07:31:30;102417.38;;;2.75;62.00
29825;BME280;16713;52.916;12.834;2023-04-04T07:33:58;102408.59;;;2.27;61.33
29825;BME280;16713;52.916;12.834;2023-04-04T07:36:24;102415.59;;;2.23;60.33
29825;BME280;16713;52.916;12.834;2023-04-04T07:38:51;102421.22;;;2.16;59.92
29825;BME280;16713;52.916;12.834;2023-04-04T07:41:17;102414.34;;;2.35;59.72
29825;BME280;16713;52.916;12.834;2023-04-04T07:43:44;102416.53;;;2.07;59.15
29825;BME280;16713;52.916;12.834;2023-04-04T07:46:10;102421.72;;;2.45;58.85
29825;BME280;16713;52.916;12.834;2023-04-04T07:48:37;102424.28;;;2.25;59.12
29825;BME280;16713;52.916;12.834;2023-04-04T07:51:04;102421.50;;;2.46;58.81
29825;BME280;16713;52.916;12.834;2023-04-04T07:53:31;102430.50;;;2.57;58.67
29825;BME280;16713;52.916;12.834;2023-04-04T07:55:58;102427.75;;;2.52;57.54
29825;BME280;16713;52.916;12.834;2023-04-04T07:58:24;102427.81;;;2.57;57.15
29825;BME280;16713;52.916;12.834;2023-04-04T08:00:51;102431.72;;;2.76;57.59
29825;BME280;16713;52.916;12.834;2023-04-04T08:03:17;102432.06;;;2.84;57.67
29825;BME280;16713;52.916;12.834;2023-04-04T08:05:45;102427.66;;;2.73;57.55
29825;BME280;16713;52.916;12.834;2023-04-04T08:08:12;102425.84;;;2.84;58.87
29825;BME280;16713;52.916;12.834;2023-04-04T08:10:38;102434.38;;;3.02;57.28
29825;BME280;16713;52.916;12.834;2023-04-04T08:13:05;102426.03;;;3.19;57.29
29825;BME280;16713;52.916;12.834;2023-04-04T08:15:34;102428.56;;;3.35;57.37
29825;BME280;16713;52.916;12.834;2023-04-04T08:18:00;102427.50;;;3.41;57.16
29825;BME280;16713;52.916;12.834;2023-04-04T08:20:28;102424.72;;;3.21;56.72
29825;BME280;16713;52.916;12.834;2023-04-04T08:22:54;102430.47;;;3.35;57.05
29825;BME280;16713;52.916;12.834;2023-04-04T08:25:21;102421.09;;;3.06;57.89
29825;BME280;16713;52.916;12.834;2023-04-04T08:27:48;102422.03;;;3.26;58.59
29825;BME280;16713;52.916;12.834;2023-04-04T08:30:14;102423.41;;;3.34;58.18
29825;BME280;16713;52.916;12.834;2023-04-04T08:32:41;102428.38;;;3.52;57.07
29825;BME280;16713;52.916;12.834;2023-04-04T08:35:11;102430.06;;;3.68;58.42
29825;BME280;16713;52.916;12.834;2023-04-04T08:37:38;102432.78;;;3.78;56.94
29825;BME280;16713;52.916;12.834;2023-04-04T08:40:05;102428.13;;;3.64;55.21
29825;BME280;16713;52.916;12.834;2023-04-04T08:42:32;102425.50;;;3.22;56.23
29825;BME280;16713;52.916;12.834;2023-04-04T08:45:03;102430.53;;;3.50;56.78
29825;BME280;16713;52.916;12.834;2023-04-04T08:47:30;102428.50;;;3.87;57.58
29825;BME280;16713;52.916;12.834;2023-04-04T08:49:58;102413.19;;;3.56;56.06
29825;BME280;16713;52.916;12.834;2023-04-04T08:52:26;102430.34;;;3.67;56.64
29825;BME280;16713;52.916;12.834;2023-04-04T08:54:54;102423.03;;;3.77;56.58
29825;BME280;16713;52.916;12.834;2023-04-04T08:57:20;102426.06;;;4.01;56.01
29825;BME280;16713;52.916;12.834;2023-04-04T08:59:47;102421.16;;;3.88;55.11
29825;BME280;16713;52.916;12.834;2023-04-04T09:04:55;102421.41;;;3.76;54.75
29825;BME280;16713;52.916;12.834;2023-04-04T09:07:32;102429.31;;;3.98;53.25
29825;BME280;16713;52.916;12.834;2023-04-04T09:09:59;102419.50;;;3.82;54.25
29825;BME280;16713;52.916;12.834;2023-04-04T09:12:27;102418.16;;;3.79;53.88
29825;BME280;16713;52.916;12.834;2023-04-04T09:14:55;102425.00;;;4.02;53.69
29825;BME280;16713;52.916;12.834;2023-04-04T09:17:22;102414.97;;;4.07;52.79
29825;BME280;16713;52.916;12.834;2023-04-04T09:19:49;102419.06;;;4.30;53.17
29825;BME280;16713;52.916;12.834;2023-04-04T09:22:15;102418.22;;;4.09;51.60
29825;BME280;16713;52.916;12.834;2023-04-04T09:24:42;102411.13;;;3.93;52.73
29825;BME280;16713;52.916;12.834;2023-04-04T09:27:10;102420.44;;;4.32;53.54
29825;BME280;16713;52.916;12.834;2023-04-04T09:29:38;102418.50;;;4.33;51.92
29825;BME280;16713;52.916;12.834;2023-04-04T09:32:14;102420.69;;;4.21;52.98
29825;BME280;16713;52.916;12.834;2023-04-04T09:34:43;102409.78;;;4.01;53.08
29825;BME280;16713;52.916;12.834;2023-04-04T09:37:10;102418.50;;;4.08;52.39
29825;BME280;16713;52.916;12.834;2023-04-04T09:39:40;102414.72;;;4.29;51.53
29825;BME280;16713;52.916;12.834;2023-04-04T09:42:07;102416.66;;;4.43;51.89
29825;BME280;16713;52.916;12.834;2023-04-04T09:44:35;102414.75;;;4.49;52.52
29825;BME280;16713;52.916;12.834;2023-04-04T09:47:25;102416.88;;;4.32;52.85
29825;BME280;16713;52.916;12.834;2023-04-04T09:50:00;102416.38;;;4.45;52.36
29825;BME280;16713;52.916;12.834;2023-04-04T09:52:30;102415.44;;;3.89;54.01
29825;BME280;16713;52.916;12.834;2023-04-04T09:55:00;102415.81;;;4.38;53.29
29825;BME280;16713;52.916;12.834;2023-04-04T09:57:28;102414.19;;;4.42;53.47
29825;BME280;16713;52.916;12.834;2023-04-04T09:59:59;102416.63;;;4.58;53.73
29825;BME280;16713;52.916;12.834;2023-04-04T10:02:31;102410.09;;;4.79;54.11
29825;BME280;16713;52.916;12.834;2023-04-04T10:04:59;102407.09;;;4.86;52.77
29825;BME280;16713;52.916;12.834;2023-04-04T10:07:29;102405.47;;;4.85;52.83
29825;BME280;16713;52.916;12.834;2023-04-04T10:09:56;102402.19;;;5.03;53.72
29825;BME280;16713;52.916;12.834;2023-04-04T10:12:26;102394.88;;;4.83;52.54
29825;BME280;16713;52.916;12.834;2023-04-04T10:14:57;102412.81;;;4.89;51.42
29825;BME280;16713;52.916;12.834;2023-04-04T10:17:29;102399.00;;;4.56;49.73
29825;BME280;16713;52.916;12.834;2023-04-04T10:19:59;102403.06;;;4.53;51.01
29825;BME280;16713;52.916;12.834;2023-04-04T10:22:26;102406.31;;;4.65;50.90
29825;BME280;16713;52.916;12.834;2023-04-04T10:24:53;102407.09;;;4.76;50.03
29825;BME280;16713;52.916;12.834;2023-04-04T10:27:20;102411.75;;;4.60;47.14
29825;BME280;16713;52.916;12.834;2023-04-04T10:29:47;102412.56;;;4.51;46.46
29825;BME280;16713;52.916;12.834;2023-04-04T10:32:18;102413.13;;;4.58;46.30
29825;BME280;16713;52.916;12.834;2023-04-04T10:35:08;102412.03;;;4.59;47.58
29825;BME280;16713;52.916;12.834;2023-04-04T10:37:42;102412.31;;;4.67;48.03
29825;BME280;16713;52.916;12.834;2023-04-04T10:40:15;102399.78;;;4.66;47.60
29825;BME280;16713;52.916;12.834;2023-04-04T10:42:45;102411.94;;;5.14;47.84
29825;BME280;16713;52.916;12.834;2023-04-04T10:45:14;102409.41;;;5.33;46.80
29825;BME280;16713;52.916;12.834;2023-04-04T10:47:47;102407.06;;;5.01;46.90
29825;BME280;16713;52.916;12.834;2023-04-04T10:50:13;102387.25;;;4.85;47.53
29825;BME280;16713;52.916;12.834;2023-04-04T10:52:44;102413.75;;;5.39;46.81
29825;BME280;16713;52.916;12.834;2023-04-04T10:55:12;102411.31;;;5.37;47.57
29825;BME280;16713;52.916;12.834;2023-04-04T10:57:41;102403.13;;;5.42;46.63
29825;BME280;16713;52.916;12.834;2023-04-04T11:00:10;102406.13;;;5.41;46.29
29825;BME280;16713;52.916;12.834;2023-04-04T11:05:23;102402.38;;;5.27;46.07
29825;BME280;16713;52.916;12.834;2023-04-04T11:08:04;102393.13;;;5.23;44.67
29825;BME280;16713;52.916;12.834;2023-04-04T11:10:36;102404.22;;;5.41;44.97
29825;BME280;16713;52.916;12.834;2023-04-04T11:16:05;102390.19;;;5.14;44.52
29825;BME280;16713;52.916;12.834;2023-04-04T11:21:06;102389.31;;;5.29;44.08
29825;BME280;16713;52.916;12.834;2023-04-04T11:29:04;102384.66;;;5.34;43.82
29825;BME280;16713;52.916;12.834;2023-04-04T11:31:43;102385.81;;;5.18;44.60
29825;BME280;16713;52.916;12.834;2023-04-04T11:34:14;102395.53;;;5.39;44.36
29825;BME280;16713;52.916;12.834;2023-04-04T11:39:13;102393.09;;;5.38;43.87
29825;BME280;16713;52.916;12.834;2023-04-04T11:42:14;102381.50;;;5.07;43.56
29825;BME280;16713;52.916;12.834;2023-04-04T11:47:09;102378.66;;;5.37;43.70
29825;BME280;16713;52.916;12.834;2023-04-04T11:49:40;102388.88;;;5.65;43.92
29825;BME280;16713;52.916;12.834;2023-04-04T11:52:09;102384.19;;;5.71;43.01
29825;BME280;16713;52.916;12.834;2023-04-04T11:54:37;102380.16;;;5.68;43.44
29825;BME280;16713;52.916;12.834;2023-04-04T11:57:05;102370.41;;;5.57;43.84
29825;BME280;16713;52.916;12.834;2023-04-04T11:59:32;102363.28;;;5.08;44.88
29825;BME280;16713;52.916;12.834;2023-04-04T12:02:00;102368.94;;;5.21;44.62
29825;BME280;16713;52.916;12.834;2023-04-04T12:04:28;102378.97;;;5.26;43.27
29825;BME280;16713;52.916;12.834;2023-04-04T12:06:55;102378.72;;;5.27;43.14
29825;BME280;16713;52.916;12.834;2023-04-04T12:09:25;102371.47;;;5.03;42.99
29825;BME280;16713;52.916;12.834;2023-04-04T12:11:53;102380.53;;;5.42;43.50
29825;BME280;16713;52.916;12.834;2023-04-04T12:14:21;102355.97;;;5.03;43.14
29825;BME280;16713;52.916;12.834;2023-04-04T12:16:55;102367.28;;;5.25;43.81
29825;BME280;16713;52.916;12.834;2023-04-04T12:19:23;102377.88;;;5.37;42.89
29825;BME280;16713;52.916;12.834;2023-04-04T12:21:51;102343.97;;;5.09;41.95
29825;BME280;16713;52.916;12.834;2023-04-04T12:24:18;102362.84;;;5.44;43.52
29825;BME280;16713;52.916;12.834;2023-04-04T12:26:48;102363.47;;;5.26;42.90
29825;BME280;16713;52.916;12.834;2023-04-04T12:29:16;102363.19;;;5.28;42.14
29825;BME280;16713;52.916;12.834;2023-04-04T12:31:44;102352.31;;;5.28;43.03
29825;BME280;16713;52.916;12.834;2023-04-04T12:34:21;102371.44;;;5.66;44.04
29825;BME280;16713;52.916;12.834;2023-04-04T12:36:49;102356.59;;;5.44;43.28
29825;BME280;16713;52.916;12.834;2023-04-04T12:39:17;102363.56;;;5.65;43.40
29825;BME280;16713;52.916;12.834;2023-04-04T12:41:56;102351.03;;;5.69;43.34
29825;BME280;16713;52.916;12.834;2023-04-04T12:44:29;102369.19;;;5.83;43.13
29825;BME280;16713;52.916;12.834;2023-04-04T12:46:57;102340.34;;;5.29;42.68
29825;BME280;16713;52.916;12.834;2023-04-04T12:49:34;102359.25;;;5.59;43.14
29825;BME280;16713;52.916;12.834;2023-04-04T12:52:05;102356.97;;;5.71;42.71
29825;BME280;16713;52.916;12.834;2023-04-04T12:54:37;102341.66;;;5.41;42.68
29825;BME280;16713;52.916;12.834;2023-04-04T12:57:05;102349.66;;;5.66;42.83
29825;BME280;16713;52.916;12.834;2023-04-04T12:59:34;102350.22;;;6.07;43.36
29825;BME280;16713;52.916;12.834;2023-04-04T13:02:02;102353.56;;;5.94;43.60
29825;BME280;16713;52.916;12.834;2023-04-04T13:04:30;102340.28;;;5.87;44.89
29825;BME280;16713;52.916;12.834;2023-04-04T13:06:57;102319.78;;;5.56;43.08
29825;BME280;16713;52.916;12.834;2023-04-04T13:09:24;102337.34;;;5.74;43.91
29825;BME280;16713;52.916;12.834;2023-04-04T13:12:01;102341.06;;;5.93;43.85
29825;BME280;16713;52.916;12.834;2023-04-04T13:17:42;102343.03;;;5.82;44.81